This is the latest recevied weather packets stored in our database for station/object KC4MCQ-10. If no packets are shown the sender has not sent any weather packets the latest 10 day(s).
| Time | Temp. | Humidity | Pressure | Rain* | Wind** | Luminosity | Snow |
|---|---|---|---|---|---|---|---|
| 1787919972 | 24.44° C | 92% | 1018.1 hPa | 0.51 mm | 0.45 m/s, 220° | - | - |
| 1787917535 | 23.33° C | 93% | 1017.6 hPa | 0.51 mm | 0.45 m/s, 175° | - | - |
| 1787916925 | 22.78° C | 93% | 1017.6 hPa | 0.51 mm | 0 m/s | - | - |
| 1787916323 | 22.78° C | 93% | 1017.5 hPa | 0.51 mm | 0.45 m/s, 175° | - | - |
| 1787915720 | 22.22° C | 92% | 1017.4 hPa | 0.51 mm | 0 m/s | - | - |
| 1787915118 | 22.22° C | 92% | 1017.2 hPa | 0.51 mm | 0 m/s | - | - |
| 1787914515 | 22.78° C | 92% | 1017 hPa | 0.51 mm | 0 m/s | - | - |
| 1787913913 | 22.78° C | 92% | 1017 hPa | 0.51 mm | 0 m/s | - | - |
| 1787913311 | 22.78° C | 92% | 1017.2 hPa | 0.51 mm | 0.45 m/s, 175° | - | - |
| 1787912700 | 22.78° C | 92% | 1016.8 hPa | 0.51 mm | 0.45 m/s, 175° | - | - |
| 1787912078 | 22.78° C | 92% | 1016.7 hPa | 0.51 mm | 0 m/s | - | - |
| 1787911476 | 22.78° C | 92% | 1016.8 hPa | 0.51 mm | 0.45 m/s, 175° | - | - |
| 1787910873 | 22.78° C | 92% | 1016.8 hPa | 0.51 mm | 0.45 m/s, 175° | - | - |
| 1787910259 | 22.78° C | 91% | 1016.6 hPa | 0.51 mm | 0.89 m/s, 178° | - | - |
| 1787909656 | 23.33° C | 91% | 1016.5 hPa | 0.51 mm | 0.45 m/s, 178° | - | - |
| 1787909053 | 23.33° C | 91% | 1016.5 hPa | 0.51 mm | 0.45 m/s, 178° | - | - |
| 1787908440 | 23.33° C | 91% | 1016.4 hPa | 0.51 mm | 0.45 m/s, 178° | - | - |
| 1787907838 | 23.89° C | 91% | 1016.5 hPa | 0.51 mm | 0.45 m/s, 178° | - | - |
| 1787907221 | 23.89° C | 91% | 1016.2 hPa | 0.51 mm | 0 m/s | - | - |
| 1787906609 | 23.89° C | 91% | 1016 hPa | 0.51 mm | 0.45 m/s, 178° | - | - |
| 1787906005 | 23.89° C | 91% | 1015.9 hPa | 0.51 mm | 0.89 m/s, 178° | - | - |
| 1787905403 | 23.89° C | 91% | 1015.8 hPa | 0.51 mm | 0 m/s | - | - |
| 1787904795 | 23.89° C | 91% | 1016.1 hPa | 0.51 mm | 0.45 m/s, 188° | - | - |
| 1787904193 | 23.89° C | 91% | 1016 hPa | 0.51 mm | 0.45 m/s, 195° | - | - |
| 1787903590 | 23.89° C | 91% | 1016 hPa | 0.51 mm | 0.89 m/s, 186° | - | - |
* Rain latest 24 hours (hover to see other rain measurements)
** Current wind speed in m/s (hover to see current wind gust speed)